Monday, December 18, 2017, 10:28 AM CST
Back to Local

KAAO, Wichita Jabara Airport

Location: Wichita, KS, United States Lat: 37.75
Local Time: 10:28 AM CST (16:28 GMT) Lon: -97.217
Time Zone: US/Central Elev: 1420 ft

Show me the last for .
Show Decoded

2017-12-18 09:54 METAR KAAO 181554Z AUTO 20008KT 7SM CLR 04/01 A3009 RMK AO2 SLP199 T00390011 =
2017-12-18 08:54 METAR KAAO 181454Z AUTO 21008KT 9SM CLR 02/00 A3011 RMK AO2 SLP207 T00170000
                 50012 =
2017-12-18 07:54 METAR KAAO 181354Z AUTO 23005KT 7SM CLR M02/M02 A3012 RMK AO2 SLP211 T10171017 =
2017-12-18 06:54 METAR KAAO 181254Z AUTO 24005KT 8SM CLR M02/M02 A3010 RMK AO2 SLP202 T10171022 =
2017-12-18 05:54 METAR KAAO 181154Z AUTO 25003KT 8SM CLR M01/M01 A3007 RMK AO2 SLP193 T10111011
                 10039 21017 50008 =
2017-12-18 04:54 METAR KAAO 181054Z AUTO 25006KT 7SM CLR M01/M01 A3008 RMK AO2 SLP195 T10111011 =
2017-12-18 03:54 METAR KAAO 180954Z AUTO 00000KT 6SM BR CLR M01/M01 A3006 RMK AO2 SLP190
                 T10111011 =
2017-12-18 02:54 METAR KAAO 180854Z AUTO 26006KT 7SM CLR 00/00 A3005 RMK AO2 SLP185 T00000000
                 56003 =
2017-12-18 01:54 METAR KAAO 180754Z AUTO 25007KT 8SM CLR 01/01 A3005 RMK AO2 SLP183 T00110011 =
2017-12-18 00:54 METAR KAAO 180654Z AUTO 24006KT 8SM CLR 03/02 A3005 RMK AO2 SLP182 T00280022 =
2017-12-17 23:54 METAR KAAO 180554Z AUTO 23006KT 8SM CLR 04/03 A3006 RMK AO2 SLP185 T00390033
                 10072 20033 400940033 51010 =
2017-12-17 22:54 METAR KAAO 180454Z AUTO 22006KT 9SM CLR 04/03 A3005 RMK AO2 SLP183 T00390033 =
2017-12-17 21:54 METAR KAAO 180354Z AUTO 22007KT 9SM CLR 04/03 A3004 RMK AO2 SLP180 T00440033 =
2017-12-17 20:54 METAR KAAO 180254Z AUTO 21007KT 9SM CLR 04/03 A3003 RMK AO2 SLP175 T00390033
                 51004 =
2017-12-17 19:54 METAR KAAO 180154Z AUTO 20008KT 10SM SCT022 06/04 A3002 RMK AO2 SLP174 T00560039
                 =
2017-12-17 18:54 METAR KAAO 180054Z AUTO 20008KT 10SM OVC022 07/04 A3003 RMK AO2 SLP174 T00720044
                 =
2017-12-17 17:54 METAR KAAO 172354Z AUTO 19011KT 10SM OVC017 07/04 A3001 RMK AO2 SLP170 T00720044
                 10094 20072 53008 =
2017-12-17 16:54 METAR KAAO 172254Z AUTO 21007KT 10SM OVC017 07/04 A2999 RMK AO2 SLP160 T00720044
                 =
2017-12-17 15:54 METAR KAAO 172154Z AUTO 23005KT 10SM OVC018 07/04 A2999 RMK AO2 SLP163 T00720044
                 =
2017-12-17 14:54 METAR KAAO 172054Z AUTO 20009KT 10SM OVC017 07/05 A2999 RMK AO2 SLP161 T00720050
                 53001 =
2017-12-17 13:54 METAR KAAO 171954Z AUTO 20007KT 10SM OVC017 08/05 A2998 RMK AO2 SLP156 T00830050
                 =
2017-12-17 12:54 METAR KAAO 171854Z AUTO 22004KT 10SM OVC016 09/05 A2998 RMK AO2 SLP157 T00890050
                 =
2017-12-17 12:36 METAR KAAO 171836Z AUTO 22004KT 10SM OVC015 08/05 A2999 RMK AO2 T00830050 =
2017-12-17 11:54 METAR KAAO 171754Z AUTO VRB03KT 10SM OVC014 08/05 A2999 RMK AO2 SLP159 T00780050
                 10078 20056 58013 =
2017-12-17 10:54 METAR KAAO 171654Z AUTO 24007KT 10SM OVC013 07/05 A3001 RMK AO2 SLP167 T00720050
                 =

Support USWX by starting your Amazon purchase here.